Time;durP1;ratioP1;P1;durP2;ratioP2;P2;SDS_P1;SDS_P2;PMS_P1;PMS_P2;Temp;Humidity;BMP_temperature;BMP_pressure;BME280_temperature;BME280_humidity;BME280_pressure;Samples;Min_cycle;Max_cycle;Signal;HPM_P1;HPM_P2
2023/12/25 00:01:28;;;;;;;;;;;;;;;;;;5116888;28;19924;-45
2023/12/25 00:03:54;;;;;;;;;;;;;;;;;;5116750;28;19923;-42
2023/12/25 00:06:22;;;;;;;;;;;;;;;;;;5116747;28;19975;-43
2023/12/25 00:08:48;;;;;;;;;;;;;;;;;;5116628;28;19931;-43
2023/12/25 00:11:15;;;;;;;;;;;;;;;;;;5116350;27;19970;-42
2023/12/25 00:13:41;;;;;;;;;;;;;;;;;;5116792;27;19947;-43
2023/12/25 00:16:07;;;;;;;;;;;;;;;;;;5116343;28;19924;-44
2023/12/25 00:18:34;;;;;;;;;;;;;;;;;;5116516;28;19968;-41
2023/12/25 00:21:00;;;;;;;;;;;;;;;;;;5116104;28;19950;-41
2023/12/25 00:23:26;;;;;;;;;;;;;;;;;;5115971;28;20445;-44
2023/12/25 00:25:52;;;;;;;;;;;;;;;;;;5115993;28;19924;-43
2023/12/25 00:28:18;;;;;;;;;;;;;;;;;;5116225;28;20003;-42
2023/12/25 00:30:44;;;;;;;;;;;;;;;;;;5116273;28;19924;-42
2023/12/25 00:33:11;;;;;;;;;;;;;;;;;;5116170;28;19930;-45
2023/12/25 00:35:37;;;;;;;;;;;;;;;;;;5116068;28;20429;-43
2023/12/25 00:38:04;;;;;;;;;;;;;;;;;;5116151;28;19935;-42
2023/12/25 00:40:30;;;;;;;;;;;;;;;;;;5115994;28;19924;-44
2023/12/25 00:42:56;;;;;;;;;;;;;;;;;;5116201;28;19980;-42
2023/12/25 00:45:22;;;;;;;;;;;;;;;;;;5115580;28;20279;-42
2023/12/25 00:47:48;;;;;;;;;;;;;;;;;;5116145;28;19993;-43
2023/12/25 00:50:14;;;;;;;;;;;;;;;;;;5115710;28;19931;-41
2023/12/25 00:52:41;;;;;;;;;;;;;;;;;;5115535;28;19932;-42
2023/12/25 00:55:07;;;;;;;;;;;;;;;;;;5115472;27;20392;-42
2023/12/25 00:57:33;;;;;;;;;;;;;;;;;;5115748;28;20488;-42
2023/12/25 00:59:59;;;;;;;;;;;;;;;;;;5115706;28;19924;-42
2023/12/25 01:02:26;;;;;;;;;;;;;;;;;;5115749;28;20266;-42
2023/12/25 01:04:52;;;;;;;;;;;;;;;;;;5115564;28;19932;-42
2023/12/25 01:07:18;;;;;;;;;;;;;;;;;;5115411;28;19928;-42
2023/12/25 01:09:44;;;;;;;;;;;;;;;;;;5115234;28;19923;-42
2023/12/25 01:12:10;;;;;;;;;;;;;;;;;;5115609;28;20052;-44
2023/12/25 01:14:37;;;;;;;;;;;;;;;;;;5115115;28;19924;-43
2023/12/25 01:17:03;;;;;;;;;;;;;;;;;;5115049;28;20138;-42
2023/12/25 01:19:29;;;;;;;;;;;;;;;;;;5115491;27;19923;-42
2023/12/25 01:21:55;;;;;;;;;;;;;;;;;;5114810;28;19924;-43
2023/12/25 01:24:21;;;;;;;;;;;;;;;;;;5115152;28;19923;-42
2023/12/25 01:26:49;;;;;;;;;;;;;;;;;;5114341;28;19927;-42
2023/12/25 01:29:15;;;;;;;;;;;;;;;;;;5114335;28;19930;-43
2023/12/25 01:31:41;;;;;;;;;;;;;;;;;;5114691;27;19978;-42
2023/12/25 01:34:07;;;;;;;;;;;;;;;;;;5114520;28;19923;-41
2023/12/25 01:36:35;;;;;;;;;;;;;;;;;;5114439;28;19953;-44
2023/12/25 01:39:01;;;;;;;;;;;;;;;;;;5114239;28;19989;-41
2023/12/25 01:41:28;;;;;;;;;;;;;;;;;;5114489;28;20329;-44
2023/12/25 01:43:54;;;;;;;;;;;;;;;;;;5113865;28;19934;-42
2023/12/25 01:46:20;;;;;;;;;;;;;;;;;;5114474;28;19969;-42
2023/12/25 01:48:46;;;;;;;;;;;;;;;;;;5114471;28;19928;-42
2023/12/25 01:51:12;;;;;;;;;;;;;;;;;;5113835;28;20333;-43
2023/12/25 01:53:38;;;;;;;;;;;;;;;;;;5114397;28;20257;-42
2023/12/25 01:56:05;;;;;;;;;;;;;;;;;;5114219;28;20319;-45
2023/12/25 01:58:31;;;;;;;;;;;;;;;;;;5114527;28;19969;-41
2023/12/25 02:00:57;;;;;;;;;;;;;;;;;;5114575;28;19928;-42
2023/12/25 02:03:23;;;;;;;;;;;;;;;;;;5114334;28;19969;-42
2023/12/25 02:05:49;;;;;;;;;;;;;;;;;;5114332;28;19931;-43
2023/12/25 02:08:16;;;;;;;;;;;;;;;;;;5114532;28;19931;-44
2023/12/25 02:10:42;;;;;;;;;;;;;;;;;;5113979;28;19931;-43
2023/12/25 02:13:08;;;;;;;;;;;;;;;;;;5114378;28;19928;-41
2023/12/25 02:15:34;;;;;;;;;;;;;;;;;;5114010;28;20433;-42
2023/12/25 02:18:00;;;;;;;;;;;;;;;;;;5113770;28;19992;-41
2023/12/25 02:20:27;;;;;;;;;;;;;;;;;;5114120;28;19955;-42
2023/12/25 02:22:53;;;;;;;;;;;;;;;;;;5113716;28;19931;-42
2023/12/25 02:25:19;;;;;;;;;;;;;;;;;;5113878;28;19931;-42
2023/12/25 02:27:45;;;;;;;;;;;;;;;;;;5113540;28;19924;-41
2023/12/25 02:30:11;;;;;;;;;;;;;;;;;;5113923;28;19969;-41
2023/12/25 02:32:38;;;;;;;;;;;;;;;;;;5114062;28;19924;-41
2023/12/25 02:35:04;;;;;;;;;;;;;;;;;;5113618;28;20326;-41
2023/12/25 02:37:30;;;;;;;;;;;;;;;;;;5113914;28;19932;-41
2023/12/25 02:39:56;;;;;;;;;;;;;;;;;;5113671;28;19923;-41
2023/12/25 02:42:22;;;;;;;;;;;;;;;;;;5113452;28;19924;-43
2023/12/25 02:44:48;;;;;;;;;;;;;;;;;;5113620;28;19923;-41
2023/12/25 02:47:14;;;;;;;;;;;;;;;;;;5113713;28;19928;-40
2023/12/25 02:49:41;;;;;;;;;;;;;;;;;;5113505;28;20368;-41
2023/12/25 02:52:07;;;;;;;;;;;;;;;;;;5113728;28;19923;-42
2023/12/25 02:54:33;;;;;;;;;;;;;;;;;;5112488;28;19947;-42
2023/12/25 02:56:59;;;;;;;;;;;;;;;;;;5112932;28;20347;-43
2023/12/25 02:59:25;;;;;;;;;;;;;;;;;;5113575;28;20257;-42
2023/12/25 03:01:51;;;;;;;;;;;;;;;;;;5113591;28;19969;-41
2023/12/25 03:04:18;;;;;;;;;;;;;;;;;;5113644;28;19949;-41
2023/12/25 03:06:44;;;;;;;;;;;;;;;;;;5113527;28;19935;-41
2023/12/25 03:09:10;;;;;;;;;;;;;;;;;;5113260;28;19932;-42
2023/12/25 03:11:36;;;;;;;;;;;;;;;;;;5113439;28;19981;-41
2023/12/25 03:14:03;;;;;;;;;;;;;;;;;;5113580;28;20289;-42
2023/12/25 03:16:29;;;;;;;;;;;;;;;;;;5113241;28;19993;-43
2023/12/25 03:18:55;;;;;;;;;;;;;;;;;;5113391;28;19973;-44
2023/12/25 03:21:22;;;;;;;;;;;;;;;;;;5113341;28;19924;-44
2023/12/25 03:23:48;;;;;;;;;;;;;;;;;;5113023;28;20014;-42
2023/12/25 03:26:14;;;;;;;;;;;;;;;;;;5112909;28;20137;-42
2023/12/25 03:28:40;;;;;;;;;;;;;;;;;;5113150;28;19924;-44
2023/12/25 03:31:06;;;;;;;;;;;;;;;;;;5112776;28;19976;-42
2023/12/25 03:33:32;;;;;;;;;;;;;;;;;;5112883;28;19985;-41
2023/12/25 03:35:59;;;;;;;;;;;;;;;;;;5112083;28;19927;-41
2023/12/25 03:38:25;;;;;;;;;;;;;;;;;;5112635;28;19977;-42
2023/12/25 03:40:51;;;;;;;;;;;;;;;;;;5112300;28;19928;-44
2023/12/25 03:43:17;;;;;;;;;;;;;;;;;;5112082;28;19955;-41
2023/12/25 03:45:43;;;;;;;;;;;;;;;;;;5112427;28;19924;-42
2023/12/25 03:48:09;;;;;;;;;;;;;;;;;;5113077;28;19932;-43
2023/12/25 03:50:36;;;;;;;;;;;;;;;;;;5112292;28;20415;-42
2023/12/25 03:53:02;;;;;;;;;;;;;;;;;;5113051;28;20279;-42
2023/12/25 03:55:28;;;;;;;;;;;;;;;;;;5112970;28;20371;-42
2023/12/25 03:57:54;;;;;;;;;;;;;;;;;;5112795;28;19988;-42
2023/12/25 04:00:21;;;;;;;;;;;;;;;;;;5112881;28;19962;-41
2023/12/25 04:02:47;;;;;;;;;;;;;;;;;;5113059;28;19924;-41
2023/12/25 04:05:13;;;;;;;;;;;;;;;;;;5112938;28;19924;-41
2023/12/25 04:07:39;;;;;;;;;;;;;;;;;;5116720;28;19969;-40
2023/12/25 04:10:06;;;;;;;;;;;;;;;;;;5116063;28;19924;-43
2023/12/25 04:12:32;;;;;;;;;;;;;;;;;;5116640;28;19969;-42
2023/12/25 04:14:58;;;;;;;;;;;;;;;;;;5116250;28;19923;-41
2023/12/25 04:17:26;;;;;;;;;;;;;;;;;;5115650;28;19942;-42
2023/12/25 04:19:52;;;;;;;;;;;;;;;;;;5115678;28;19930;-42
2023/12/25 04:22:18;;;;;;;;;;;;;;;;;;5115652;28;19989;-41
2023/12/25 04:24:44;;;;;;;;;;;;;;;;;;5115495;28;19924;-41
2023/12/25 04:27:10;;;;;;;;;;;;;;;;;;5114922;27;19971;-41
2023/12/25 04:29:36;;;;;;;;;;;;;;;;;;5115911;28;19945;-41
2023/12/25 04:32:02;;;;;;;;;;;;;;;;;;5114611;28;20321;-42
2023/12/25 04:34:29;;;;;;;;;;;;;;;;;;5115752;28;19973;-42
2023/12/25 04:36:55;;;;;;;;;;;;;;;;;;5115592;28;19928;-42
2023/12/25 04:39:21;;;;;;;;;;;;;;;;;;5115618;28;19928;-41
2023/12/25 04:41:47;;;;;;;;;;;;;;;;;;5115911;28;19977;-43
2023/12/25 04:44:14;;;;;;;;;;;;;;;;;;5115697;28;19924;-43
2023/12/25 04:46:41;;;;;;;;;;;;;;;;;;5115083;28;19928;-43
2023/12/25 04:49:07;;;;;;;;;;;;;;;;;;5115827;28;19955;-40
2023/12/25 04:51:33;;;;;;;;;;;;;;;;;;5115472;28;20026;-41
2023/12/25 04:53:59;;;;;;;;;;;;;;;;;;5115787;28;19973;-41
2023/12/25 04:56:26;;;;;;;;;;;;;;;;;;5115671;28;19923;-44
2023/12/25 04:58:52;;;;;;;;;;;;;;;;;;5115318;28;19924;-43
2023/12/25 05:01:18;;;;;;;;;;;;;;;;;;5114675;27;20017;-42
2023/12/25 05:03:44;;;;;;;;;;;;;;;;;;5115325;28;19928;-40
2023/12/25 05:06:10;;;;;;;;;;;;;;;;;;5115204;28;19924;-44
2023/12/25 05:08:36;;;;;;;;;;;;;;;;;;5115147;28;19924;-42
2023/12/25 05:11:02;;;;;;;;;;;;;;;;;;5114672;28;19923;-43
2023/12/25 05:13:30;;;;;;;;;;;;;;;;;;5114671;28;19959;-41
2023/12/25 05:15:56;;;;;;;;;;;;;;;;;;5114430;28;19977;-40
2023/12/25 05:18:22;;;;;;;;;;;;;;;;;;5114385;28;19969;-41
2023/12/25 05:20:49;;;;;;;;;;;;;;;;;;5114952;28;19923;-42
2023/12/25 05:23:15;;;;;;;;;;;;;;;;;;5114925;28;19932;-41
2023/12/25 05:25:41;;;;;;;;;;;;;;;;;;5115040;28;19980;-42
2023/12/25 05:28:07;;;;;;;;;;;;;;;;;;5114480;28;20272;-42
2023/12/25 05:30:33;;;;;;;;;;;;;;;;;;5115064;28;19992;-43
2023/12/25 05:33:00;;;;;;;;;;;;;;;;;;5114400;28;19930;-42
2023/12/25 05:35:26;;;;;;;;;;;;;;;;;;5115126;28;19928;-42
2023/12/25 05:37:52;;;;;;;;;;;;;;;;;;5114936;28;19924;-42
2023/12/25 05:40:19;;;;;;;;;;;;;;;;;;5114765;28;19930;-43
2023/12/25 05:42:45;;;;;;;;;;;;;;;;;;5115122;28;19927;-43
2023/12/25 05:45:11;;;;;;;;;;;;;;;;;;5114348;28;19924;-42
2023/12/25 05:47:39;;;;;;;;;;;;;;;;;;5114639;27;19978;-42
2023/12/25 05:50:07;;;;;;;;;;;;;;;;;;5114669;28;19967;-41
2023/12/25 05:52:34;;;;;;;;;;;;;;;;;;5114642;28;19924;-41
2023/12/25 05:55:00;;;;;;;;;;;;;;;;;;5114595;28;19924;-42
2023/12/25 05:57:37;;;;;;;;;;;;;;;;;;5113811;28;22194;-42
2023/12/25 06:00:04;;;;;;;;;;;;;;;;;;5114606;28;19928;-40
2023/12/25 06:02:30;;;;;;;;;;;;;;;;;;5114131;28;19975;-41
2023/12/25 06:04:56;;;;;;;;;;;;;;;;;;5114705;28;19924;-41
2023/12/25 06:07:23;;;;;;;;;;;;;;;;;;5114383;28;19924;-41
2023/12/25 06:09:50;;;;;;;;;;;;;;;;;;5114282;28;20359;-42
2023/12/25 06:12:16;;;;;;;;;;;;;;;;;;5114057;28;19928;-43
2023/12/25 06:14:42;;;;;;;;;;;;;;;;;;5113938;28;19931;-41
2023/12/25 06:17:08;;;;;;;;;;;;;;;;;;5114198;28;19931;-42
2023/12/25 06:19:35;;;;;;;;;;;;;;;;;;5114139;28;20379;-43
2023/12/25 06:22:01;;;;;;;;;;;;;;;;;;5113999;28;19931;-40
2023/12/25 06:24:27;;;;;;;;;;;;;;;;;;5114219;28;19923;-41
2023/12/25 06:26:53;;;;;;;;;;;;;;;;;;5114027;28;19973;-41
2023/12/25 06:29:20;;;;;;;;;;;;;;;;;;5113759;28;19980;-41
2023/12/25 06:31:47;;;;;;;;;;;;;;;;;;5113713;28;20275;-42
2023/12/25 06:34:13;;;;;;;;;;;;;;;;;;5113712;28;19976;-43
2023/12/25 06:36:39;;;;;;;;;;;;;;;;;;5113835;28;19966;-42
2023/12/25 06:39:06;;;;;;;;;;;;;;;;;;5113650;28;19927;-42
2023/12/25 06:41:32;;;;;;;;;;;;;;;;;;5113814;28;19931;-42
2023/12/25 06:43:58;;;;;;;;;;;;;;;;;;5113749;28;19924;-41
2023/12/25 06:46:24;;;;;;;;;;;;;;;;;;5113389;28;19931;-42
2023/12/25 06:48:51;;;;;;;;;;;;;;;;;;5113636;28;20018;-42
2023/12/25 06:51:17;;;;;;;;;;;;;;;;;;5113542;28;19924;-45
2023/12/25 06:53:43;;;;;;;;;;;;;;;;;;5113733;28;19931;-43
2023/12/25 06:56:10;;;;;;;;;;;;;;;;;;5113512;28;20339;-42
2023/12/25 06:58:36;;;;;;;;;;;;;;;;;;5113638;28;20367;-42
2023/12/25 07:01:06;;;;;;;;;;;;;;;;;;5113738;28;19976;-42
2023/12/25 07:03:32;;;;;;;;;;;;;;;;;;5113338;28;19923;-42
2023/12/25 07:05:58;;;;;;;;;;;;;;;;;;5093426;28;19924;-44
2023/12/25 07:08:27;;;;;;;;;;;;;;;;;;5092987;28;20381;-43
2023/12/25 07:10:53;;;;;;;;;;;;;;;;;;5092476;28;19930;-42
2023/12/25 07:13:20;;;;;;;;;;;;;;;;;;5092657;28;19928;-41
2023/12/25 07:15:46;;;;;;;;;;;;;;;;;;5092754;28;19935;-43
2023/12/25 07:18:12;;;;;;;;;;;;;;;;;;5093131;28;19977;-41
2023/12/25 07:20:38;;;;;;;;;;;;;;;;;;5093168;28;19970;-42
2023/12/25 07:23:05;;;;;;;;;;;;;;;;;;5093115;28;19924;-43
2023/12/25 07:25:31;;;;;;;;;;;;;;;;;;5093183;28;19970;-41
2023/12/25 07:27:57;;;;;;;;;;;;;;;;;;5092974;28;19932;-41
2023/12/25 07:30:23;;;;;;;;;;;;;;;;;;5093213;28;19924;-40
2023/12/25 07:32:49;;;;;;;;;;;;;;;;;;5112170;28;19923;-42
2023/12/25 07:35:16;;;;;;;;;;;;;;;;;;5113219;28;19931;-44
2023/12/25 07:37:42;;;;;;;;;;;;;;;;;;5112607;28;19976;-40
2023/12/25 07:40:10;;;;;;;;;;;;;;;;;;5113008;28;19973;-43
2023/12/25 07:42:37;;;;;;;;;;;;;;;;;;5117008;28;19936;-43
2023/12/25 07:45:03;;;;;;;;;;;;;;;;;;5116560;28;19969;-41
2023/12/25 07:47:29;;;;;;;;;;;;;;;;;;5116589;28;19924;-43
2023/12/25 07:49:56;;;;;;;;;;;;;;;;;;5116619;28;19930;-43
2023/12/25 07:52:22;;;;;;;;;;;;;;;;;;5116453;28;19989;-42
2023/12/25 07:54:48;;;;;;;;;;;;;;;;;;5116489;28;19923;-40
2023/12/25 07:57:16;;;;;;;;;;;;;;;;;;5116849;28;19924;-42
2023/12/25 07:59:43;;;;;;;;;;;;;;;;;;5116924;28;19973;-43
2023/12/25 08:02:09;;;;;;;;;;;;;;;;;;5116251;28;20398;-42
2023/12/25 08:04:35;;;;;;;;;;;;;;;;;;5116805;28;20417;-43
2023/12/25 08:07:01;;;;;;;;;;;;;;;;;;5116123;28;20334;-42
2023/12/25 08:09:27;;;;;;;;;;;;;;;;;;5116389;28;19981;-43
2023/12/25 08:11:54;;;;;;;;;;;;;;;;;;5116596;28;19924;-41
2023/12/25 08:14:20;;;;;;;;;;;;;;;;;;5116354;28;19931;-41
2023/12/25 08:16:46;;;;;;;;;;;;;;;;;;5116413;28;20074;-42
2023/12/25 08:19:12;;;;;;;;;;;;;;;;;;5116572;28;20364;-42
2023/12/25 08:21:38;;;;;;;;;;;;;;;;;;5115988;28;20321;-41
2023/12/25 08:24:05;;;;;;;;;;;;;;;;;;5116535;27;20317;-42
2023/12/25 08:26:31;;;;;;;;;;;;;;;;;;5116073;28;19930;-43
2023/12/25 08:28:58;;;;;;;;;;;;;;;;;;5115751;28;20018;-41
2023/12/25 08:31:24;;;;;;;;;;;;;;;;;;5116034;28;19927;-41
2023/12/25 08:33:50;;;;;;;;;;;;;;;;;;5115202;28;19924;-42
2023/12/25 08:36:16;;;;;;;;;;;;;;;;;;5115472;28;19928;-42
2023/12/25 08:38:42;;;;;;;;;;;;;;;;;;5115073;28;19955;-41
2023/12/25 08:41:08;;;;;;;;;;;;;;;;;;5115176;28;20034;-42
2023/12/25 08:43:35;;;;;;;;;;;;;;;;;;5115604;28;19923;-44
2023/12/25 08:46:01;;;;;;;;;;;;;;;;;;5115646;28;19925;-44
2023/12/25 08:48:27;;;;;;;;;;;;;;;;;;5115273;28;19977;-42
2023/12/25 08:50:54;;;;;;;;;;;;;;;;;;5115766;28;20011;-45
2023/12/25 08:53:20;;;;;;;;;;;;;;;;;;5114462;28;19935;-42
2023/12/25 08:55:46;;;;;;;;;;;;;;;;;;5116002;28;19971;-42
2023/12/25 08:58:12;;;;;;;;;;;;;;;;;;5115903;28;19939;-42
2023/12/25 09:00:39;;;;;;;;;;;;;;;;;;5115935;27;19924;-42
2023/12/25 09:03:06;;;;;;;;;;;;;;;;;;5115753;28;19931;-44
2023/12/25 09:05:32;;;;;;;;;;;;;;;;;;5115610;28;19928;-45
2023/12/25 09:07:59;;;;;;;;;;;;;;;;;;5114947;28;19949;-45
2023/12/25 09:10:25;;;;;;;;;;;;;;;;;;5115098;28;19924;-42
2023/12/25 09:12:51;;;;;;;;;;;;;;;;;;5115338;28;19959;-43
2023/12/25 09:15:17;;;;;;;;;;;;;;;;;;5115005;28;19931;-41
2023/12/25 09:17:45;;;;;;;;;;;;;;;;;;5115352;28;19924;-43
2023/12/25 09:20:11;;;;;;;;;;;;;;;;;;5115298;28;20030;-42
2023/12/25 09:22:37;;;;;;;;;;;;;;;;;;5115429;28;19968;-41
2023/12/25 09:25:04;;;;;;;;;;;;;;;;;;5115392;28;19924;-44
2023/12/25 09:27:30;;;;;;;;;;;;;;;;;;5115223;28;19928;-42
2023/12/25 09:29:56;;;;;;;;;;;;;;;;;;5115294;28;19988;-41
2023/12/25 09:32:23;;;;;;;;;;;;;;;;;;5115293;28;19924;-42
2023/12/25 09:34:49;;;;;;;;;;;;;;;;;;5114419;28;19932;-41
2023/12/25 09:37:20;;;;;;;;;;;;;;;;;;5114741;28;19927;-43
2023/12/25 09:39:47;;;;;;;;;;;;;;;;;;5114310;28;19924;-41
2023/12/25 09:42:13;;;;;;;;;;;;;;;;;;5114811;28;19994;-41
2023/12/25 09:44:39;;;;;;;;;;;;;;;;;;5114447;28;19924;-42
2023/12/25 09:47:06;;;;;;;;;;;;;;;;;;5114849;28;19973;-41
2023/12/25 09:49:32;;;;;;;;;;;;;;;;;;5114678;28;19927;-43
2023/12/25 09:51:58;;;;;;;;;;;;;;;;;;5114828;28;20412;-41
2023/12/25 09:54:24;;;;;;;;;;;;;;;;;;5114708;28;19963;-41
2023/12/25 09:56:51;;;;;;;;;;;;;;;;;;5114816;28;19977;-41
2023/12/25 09:59:17;;;;;;;;;;;;;;;;;;5114645;28;19935;-43
2023/12/25 10:01:43;;;;;;;;;;;;;;;;;;5114164;28;20307;-42
2023/12/25 10:04:09;;;;;;;;;;;;;;;;;;5114080;28;19976;-42
2023/12/25 10:06:35;;;;;;;;;;;;;;;;;;5114486;28;19930;-41
2023/12/25 10:09:03;;;;;;;;;;;;;;;;;;5113485;28;19927;-41
2023/12/25 10:11:29;;;;;;;;;;;;;;;;;;5113851;28;19931;-42
2023/12/25 10:13:55;;;;;;;;;;;;;;;;;;5112098;28;19969;-42
2023/12/25 10:16:22;;;;;;;;;;;;;;;;;;5114024;28;19924;-41
2023/12/25 10:18:49;;;;;;;;;;;;;;;;;;5113979;28;19984;-41
2023/12/25 10:21:16;;;;;;;;;;;;;;;;;;5113955;28;19946;-42
2023/12/25 10:23:42;;;;;;;;;;;;;;;;;;5114330;28;19924;-41
2023/12/25 10:26:08;;;;;;;;;;;;;;;;;;5114238;28;19981;-41
2023/12/25 10:28:34;;;;;;;;;;;;;;;;;;5114168;28;19923;-42
2023/12/25 10:31:00;;;;;;;;;;;;;;;;;;5113529;27;20537;-43
2023/12/25 10:33:26;;;;;;;;;;;;;;;;;;5113754;28;19981;-42
2023/12/25 10:35:53;;;;;;;;;;;;;;;;;;5113570;28;19924;-43
2023/12/25 10:38:21;;;;;;;;;;;;;;;;;;5113364;28;19923;-42
2023/12/25 10:40:47;;;;;;;;;;;;;;;;;;5113578;28;20027;-43
2023/12/25 10:43:14;;;;;;;;;;;;;;;;;;5113428;28;19924;-46
2023/12/25 10:45:40;;;;;;;;;;;;;;;;;;5113545;28;20424;-44
2023/12/25 10:48:09;;;;;;;;;;;;;;;;;;5113932;28;20413;-42
2023/12/25 10:50:36;;;;;;;;;;;;;;;;;;5113700;28;19923;-42
2023/12/25 10:53:03;;;;;;;;;;;;;;;;;;5113877;28;19924;-42
2023/12/25 10:55:29;;;;;;;;;;;;;;;;;;5113770;28;19972;-41
2023/12/25 10:57:56;;;;;;;;;;;;;;;;;;5113760;28;20295;-43
2023/12/25 11:00:22;;;;;;;;;;;;;;;;;;5113510;28;19924;-43
2023/12/25 11:02:48;;;;;;;;;;;;;;;;;;5113624;28;19930;-44
2023/12/25 11:05:15;;;;;;;;;;;;;;;;;;5113368;28;20296;-42
2023/12/25 11:07:41;;;;;;;;;;;;;;;;;;5113562;28;19972;-42
2023/12/25 11:10:08;;;;;;;;;;;;;;;;;;5113282;28;19928;-41
2023/12/25 11:12:34;;;;;;;;;;;;;;;;;;5113582;28;19976;-41
2023/12/25 11:15:00;;;;;;;;;;;;;;;;;;5113031;28;19927;-41
2023/12/25 11:17:27;;;;;;;;;;;;;;;;;;5117157;28;20291;-43
2023/12/25 11:19:53;;;;;;;;;;;;;;;;;;5117848;28;20024;-43
2023/12/25 11:22:19;;;;;;;;;;;;;;;;;;5117840;27;19927;-43
2023/12/25 11:24:45;;;;;;;;;;;;;;;;;;5117842;28;19923;-45
2023/12/25 11:27:16;;;;;;;;;;;;;;;;;;5117418;28;19927;-44
2023/12/25 11:29:42;;;;;;;;;;;;;;;;;;5117245;28;20424;-41
2023/12/25 11:32:08;;;;;;;;;;;;;;;;;;5117417;28;20016;-43
2023/12/25 11:34:34;;;;;;;;;;;;;;;;;;5117118;28;19969;-43
2023/12/25 11:37:03;;;;;;;;;;;;;;;;;;5117334;28;19923;-41
2023/12/25 11:39:31;;;;;;;;;;;;;;;;;;5116476;28;19927;-42
2023/12/25 11:41:57;;;;;;;;;;;;;;;;;;5117404;28;19977;-41
2023/12/25 11:44:23;;;;;;;;;;;;;;;;;;5116847;28;19924;-42
2023/12/25 11:46:50;;;;;;;;;;;;;;;;;;5117108;28;20344;-42
2023/12/25 11:49:16;;;;;;;;;;;;;;;;;;5117208;28;20355;-44
2023/12/25 11:51:42;;;;;;;;;;;;;;;;;;5117087;28;19991;-41
2023/12/25 11:54:08;;;;;;;;;;;;;;;;;;5117135;28;20531;-42
2023/12/25 11:56:35;;;;;;;;;;;;;;;;;;5116902;28;19924;-40
2023/12/25 11:59:01;;;;;;;;;;;;;;;;;;5116821;28;19923;-44
2023/12/25 12:01:28;;;;;;;;;;;;;;;;;;5116804;28;19923;-41
2023/12/25 12:03:54;;;;;;;;;;;;;;;;;;5116371;28;20364;-41
2023/12/25 12:06:20;;;;;;;;;;;;;;;;;;5116386;28;19924;-45
2023/12/25 12:08:48;;;;;;;;;;;;;;;;;;5116295;28;19967;-44
2023/12/25 12:11:14;;;;;;;;;;;;;;;;;;5115424;28;19924;-41
2023/12/25 12:13:40;;;;;;;;;;;;;;;;;;5116357;28;19927;-42
2023/12/25 12:16:06;;;;;;;;;;;;;;;;;;5115646;28;19927;-42
2023/12/25 12:18:33;;;;;;;;;;;;;;;;;;5116147;28;20039;-43
2023/12/25 12:20:59;;;;;;;;;;;;;;;;;;5116196;28;19928;-42
2023/12/25 12:23:25;;;;;;;;;;;;;;;;;;5116348;28;20283;-43
2023/12/25 12:25:51;;;;;;;;;;;;;;;;;;5115628;28;20011;-41
2023/12/25 12:28:18;;;;;;;;;;;;;;;;;;5115520;28;20022;-43
2023/12/25 12:30:45;;;;;;;;;;;;;;;;;;5116240;28;19924;-42
2023/12/25 12:33:12;;;;;;;;;;;;;;;;;;5116155;28;19923;-42
2023/12/25 12:35:38;;;;;;;;;;;;;;;;;;5115374;28;19977;-42
2023/12/25 12:38:05;;;;;;;;;;;;;;;;;;5116134;28;19923;-41
2023/12/25 12:40:31;;;;;;;;;;;;;;;;;;5115626;28;19980;-42
2023/12/25 12:42:57;;;;;;;;;;;;;;;;;;5116214;28;20359;-42
2023/12/25 12:45:23;;;;;;;;;;;;;;;;;;5115408;28;19946;-42
2023/12/25 12:47:52;;;;;;;;;;;;;;;;;;5116219;28;19982;-41
2023/12/25 12:50:19;;;;;;;;;;;;;;;;;;5116022;28;19924;-45
2023/12/25 12:52:46;;;;;;;;;;;;;;;;;;5116150;28;19935;-42
2023/12/25 12:55:12;;;;;;;;;;;;;;;;;;5115597;28;19931;-42
2023/12/25 12:57:39;;;;;;;;;;;;;;;;;;5115888;28;19945;-41
2023/12/25 13:00:05;;;;;;;;;;;;;;;;;;5115626;28;19927;-42
2023/12/25 13:02:31;;;;;;;;;;;;;;;;;;5115482;28;19924;-43
2023/12/25 13:04:58;;;;;;;;;;;;;;;;;;5115821;28;19924;-41
2023/12/25 13:07:24;;;;;;;;;;;;;;;;;;5115628;28;19976;-42
2023/12/25 13:09:50;;;;;;;;;;;;;;;;;;5115493;28;19988;-42
2023/12/25 13:12:16;;;;;;;;;;;;;;;;;;5115567;28;19972;-42
2023/12/25 13:14:42;;;;;;;;;;;;;;;;;;5115280;27;19939;-43
2023/12/25 13:17:08;;;;;;;;;;;;;;;;;;5115508;28;20014;-41
2023/12/25 13:19:34;;;;;;;;;;;;;;;;;;5115585;28;20010;-41
2023/12/25 13:22:02;;;;;;;;;;;;;;;;;;5115585;28;19970;-43
2023/12/25 13:24:28;;;;;;;;;;;;;;;;;;5115263;28;19932;-41
2023/12/25 13:26:54;;;;;;;;;;;;;;;;;;5115231;28;19923;-42
2023/12/25 13:29:20;;;;;;;;;;;;;;;;;;5115157;28;19935;-42
2023/12/25 13:31:46;;;;;;;;;;;;;;;;;;5115078;28;19931;-42
2023/12/25 13:34:12;;;;;;;;;;;;;;;;;;5115289;28;19973;-43
2023/12/25 13:36:39;;;;;;;;;;;;;;;;;;5114420;28;20333;-42
2023/12/25 13:39:05;;;;;;;;;;;;;;;;;;5113861;28;20441;-40
2023/12/25 13:41:33;;;;;;;;;;;;;;;;;;5114863;28;19946;-42
2023/12/25 13:43:59;;;;;;;;;;;;;;;;;;5114855;28;20004;-42
2023/12/25 13:46:26;;;;;;;;;;;;;;;;;;5114535;28;19931;-42
2023/12/25 13:48:52;;;;;;;;;;;;;;;;;;5114847;28;19969;-41
2023/12/25 13:51:18;;;;;;;;;;;;;;;;;;5114375;28;20022;-43
2023/12/25 13:53:44;;;;;;;;;;;;;;;;;;5114726;28;19923;-43
2023/12/25 13:56:10;;;;;;;;;;;;;;;;;;5114658;28;19924;-43
2023/12/25 13:58:37;;;;;;;;;;;;;;;;;;5114485;28;19953;-44
2023/12/25 14:01:03;;;;;;;;;;;;;;;;;;5114515;28;19924;-41
2023/12/25 14:03:29;;;;;;;;;;;;;;;;;;5114567;28;19931;-40
2023/12/25 14:05:55;;;;;;;;;;;;;;;;;;5114653;28;19950;-42
2023/12/25 14:08:22;;;;;;;;;;;;;;;;;;5114571;28;19923;-42
2023/12/25 14:10:48;;;;;;;;;;;;;;;;;;5114105;28;19928;-40
2023/12/25 14:13:14;;;;;;;;;;;;;;;;;;5114477;28;19924;-41
2023/12/25 14:15:40;;;;;;;;;;;;;;;;;;5113839;28;19984;-42
2023/12/25 14:18:06;;;;;;;;;;;;;;;;;;5114496;28;20314;-42
2023/12/25 14:20:33;;;;;;;;;;;;;;;;;;5114317;28;20321;-41
2023/12/25 14:22:59;;;;;;;;;;;;;;;;;;5114005;28;20341;-41
2023/12/25 14:25:25;;;;;;;;;;;;;;;;;;5114128;28;19932;-42
2023/12/25 14:27:51;;;;;;;;;;;;;;;;;;5114164;28;19924;-42
2023/12/25 14:30:19;;;;;;;;;;;;;;;;;;5113952;28;20271;-42
2023/12/25 14:32:45;;;;;;;;;;;;;;;;;;5114147;28;19923;-41
2023/12/25 14:35:12;;;;;;;;;;;;;;;;;;5113892;28;19968;-40
2023/12/25 14:37:38;;;;;;;;;;;;;;;;;;5113512;28;19979;-41
2023/12/25 14:40:04;;;;;;;;;;;;;;;;;;5113730;28;19927;-41
2023/12/25 14:42:30;;;;;;;;;;;;;;;;;;5114011;28;20384;-40
2023/12/25 14:44:56;;;;;;;;;;;;;;;;;;5112843;28;20332;-41
2023/12/25 14:47:23;;;;;;;;;;;;;;;;;;5113093;28;19932;-41
2023/12/25 14:49:49;;;;;;;;;;;;;;;;;;5112966;28;19931;-43
2023/12/25 14:52:15;;;;;;;;;;;;;;;;;;5112683;28;19924;-42
2023/12/25 14:54:41;;;;;;;;;;;;;;;;;;5105365;28;19932;-41
2023/12/25 14:57:07;;;;;;;;;;;;;;;;;;5113668;28;19977;-42
2023/12/25 14:59:34;;;;;;;;;;;;;;;;;;5113126;28;19926;-41
2023/12/25 15:02:00;;;;;;;;;;;;;;;;;;5113208;28;19930;-41
2023/12/25 15:04:26;;;;;;;;;;;;;;;;;;5113756;28;20317;-41
2023/12/25 15:06:52;;;;;;;;;;;;;;;;;;5113131;28;20355;-41
2023/12/25 15:09:18;;;;;;;;;;;;;;;;;;5113392;28;20367;-41
2023/12/25 15:11:44;;;;;;;;;;;;;;;;;;5113138;28;20375;-40
2023/12/25 15:14:11;;;;;;;;;;;;;;;;;;5113587;28;19932;-41
2023/12/25 15:16:37;;;;;;;;;;;;;;;;;;5113316;28;20405;-40
2023/12/25 15:19:05;;;;;;;;;;;;;;;;;;5113557;28;19924;-41
2023/12/25 15:21:31;;;;;;;;;;;;;;;;;;5113476;28;19924;-44
2023/12/25 15:23:58;;;;;;;;;;;;;;;;;;5113376;28;19924;-41
2023/12/25 15:26:24;;;;;;;;;;;;;;;;;;5113488;28;19931;-42
2023/12/25 15:28:50;;;;;;;;;;;;;;;;;;5113530;28;20421;-43
2023/12/25 15:31:16;;;;;;;;;;;;;;;;;;5113062;28;20359;-43
2023/12/25 15:33:42;;;;;;;;;;;;;;;;;;5112689;28;20240;-43
2023/12/25 15:36:10;;;;;;;;;;;;;;;;;;5112444;28;19931;-41
2023/12/25 15:38:36;;;;;;;;;;;;;;;;;;5112258;28;19939;-43
2023/12/25 15:41:02;;;;;;;;;;;;;;;;;;5112428;28;19924;-41
2023/12/25 15:43:29;;;;;;;;;;;;;;;;;;5112659;28;20011;-42
2023/12/25 15:45:56;;;;;;;;;;;;;;;;;;5112548;28;19923;-41
2023/12/25 15:48:23;;;;;;;;;;;;;;;;;;5112449;28;19924;-42
2023/12/25 15:50:51;;;;;;;;;;;;;;;;;;5112714;28;19923;-40
2023/12/25 15:53:17;;;;;;;;;;;;;;;;;;5112715;28;19932;-40
2023/12/25 15:55:43;;;;;;;;;;;;;;;;;;5112782;28;19927;-42
2023/12/25 15:58:09;;;;;;;;;;;;;;;;;;5112998;28;19924;-41
2023/12/25 16:00:36;;;;;;;;;;;;;;;;;;5113040;28;19971;-42
2023/12/25 16:03:03;;;;;;;;;;;;;;;;;;5115449;28;19923;-44
2023/12/25 16:05:29;;;;;;;;;;;;;;;;;;5117033;28;20391;-41
2023/12/25 16:07:56;;;;;;;;;;;;;;;;;;5116443;28;19931;-43
2023/12/25 16:10:22;;;;;;;;;;;;;;;;;;5116837;28;19930;-41
2023/12/25 16:12:48;;;;;;;;;;;;;;;;;;5116203;28;19989;-43
2023/12/25 16:15:14;;;;;;;;;;;;;;;;;;5116097;28;19924;-45
2023/12/25 16:17:41;;;;;;;;;;;;;;;;;;5116775;28;19928;-42
2023/12/25 16:20:07;;;;;;;;;;;;;;;;;;5116564;28;19923;-42
2023/12/25 16:22:33;;;;;;;;;;;;;;;;;;5116516;28;20321;-42
2023/12/25 16:24:59;;;;;;;;;;;;;;;;;;5116610;28;19931;-42
2023/12/25 16:27:25;;;;;;;;;;;;;;;;;;5116474;28;19981;-41
2023/12/25 16:29:52;;;;;;;;;;;;;;;;;;5116538;28;19928;-41
2023/12/25 16:32:18;;;;;;;;;;;;;;;;;;5116252;28;20018;-43
2023/12/25 16:34:44;;;;;;;;;;;;;;;;;;5116490;28;19927;-41
2023/12/25 16:37:10;;;;;;;;;;;;;;;;;;5116221;28;19923;-42
2023/12/25 16:39:36;;;;;;;;;;;;;;;;;;5115983;28;19924;-40